Terminal Aerodrome Forecast
Issued by NWS

Home | Current Version | Previous Version | Text Only | Print | Product List | Glossary On
Versions: 1 2 3 4 5 6 7 8 9 10 11 12 13 14 15 16 17 18 19
000
FTUS45 KABQ 241728
TAFSAF
TAF
KSAF 241728Z 2418/2518 24015G25KT P6SM VCSH BKN050
     FM242000 25018G28KT P6SM VCTS BKN050CB
     FM250300 32009KT P6SM SKC
     FM250900 35004KT 5SM BR VCFG SCT005
     FM251400 35008KT P6SM FEW040=

USA.gov is the U.S. government's official web portal to all federal, state and local government web resources and services.